Time;durP1;ratioP1;P1;durP2;ratioP2;P2;SDS_P1;SDS_P2;PMS_P1;PMS_P2;Temp;Humidity;BMP_temperature;BMP_pressure;BME280_temperature;BME280_humidity;BME280_pressure;Samples;Min_cycle;Max_cycle;Signal;HPM_P1;HPM_P2
2021/06/27 00:00:22;;;;;;;2.75;2.55;;;;;;;;;;5071560;28;20677;-86
2021/06/27 00:02:51;;;;;;;2.80;2.60;;;;;;;;;;5073090;28;20609;-86
2021/06/27 00:05:24;;;;;;;3.20;3.00;;;;;;;;;;5073705;28;20182;-86
2021/06/27 00:07:54;;;;;;;2.67;2.47;;;;;;;;;;5073659;28;20694;-86
2021/06/27 00:10:27;;;;;;;2.70;2.50;;;;;;;;;;5073699;28;20201;-86
2021/06/27 00:12:55;;;;;;;3.10;2.33;;;;;;;;;;5073876;28;20189;-86
2021/06/27 00:15:27;;;;;;;1.98;1.88;;;;;;;;;;5073657;28;20200;-87
2021/06/27 00:17:56;;;;;;;1.88;1.77;;;;;;;;;;5073596;28;20220;-86
2021/06/27 00:20:32;;;;;;;2.17;2.08;;;;;;;;;;5073234;28;20220;-86
2021/06/27 00:23:00;;;;;;;2.20;2.05;;;;;;;;;;5073379;28;20180;-85
2021/06/27 00:25:30;;;;;;;2.25;2.10;;;;;;;;;;5073136;28;20177;-86
2021/06/27 00:27:59;;;;;;;2.38;2.22;;;;;;;;;;5073693;28;20770;-87
2021/06/27 00:30:30;;;;;;;2.15;2.00;;;;;;;;;;5068010;28;20201;-86
2021/06/27 00:32:58;;;;;;;2.45;2.25;;;;;;;;;;5073307;28;20193;-86
2021/06/27 00:35:28;;;;;;;2.20;2.10;;;;;;;;;;5073362;28;20208;-86
2021/06/27 00:37:57;;;;;;;2.30;2.10;;;;;;;;;;5073208;28;20217;-86
2021/06/27 00:40:27;;;;;;;2.38;2.17;;;;;;;;;;5072625;28;20217;-86
2021/06/27 00:42:55;;;;;;;2.17;2.00;;;;;;;;;;5073178;28;20197;-86
2021/06/27 00:45:25;;;;;;;2.20;2.10;;;;;;;;;;5072878;28;20185;-86
2021/06/27 00:47:58;;;;;;;2.40;2.20;;;;;;;;;;5072550;28;20221;-85
2021/06/27 00:50:35;;;;;;;2.50;2.30;;;;;;;;;;5072854;28;20255;-87
2021/06/27 00:53:03;;;;;;;2.63;2.42;;;;;;;;;;5072823;28;20542;-86
2021/06/27 00:55:31;;;;;;;2.72;2.53;;;;;;;;;;5072638;28;20228;-86
2021/06/27 00:58:00;;;;;;;3.08;2.83;;;;;;;;;;5072105;28;20595;-87
2021/06/27 01:00:30;;;;;;;3.03;2.53;;;;;;;;;;5072860;28;20201;-85
2021/06/27 01:02:58;;;;;;;2.90;2.58;;;;;;;;;;5072838;28;20242;-87
2021/06/27 01:05:30;;;;;;;2.92;2.67;;;;;;;;;;5072854;28;20551;-87
2021/06/27 01:07:59;;;;;;;2.70;2.50;;;;;;;;;;5072515;28;20213;-86
2021/06/27 01:10:27;;;;;;;2.55;2.35;;;;;;;;;;5071378;28;20208;-86
2021/06/27 01:12:55;;;;;;;5.22;4.82;;;;;;;;;;5072186;28;20173;-86
2021/06/27 01:15:24;;;;;;;4.47;4.07;;;;;;;;;;5068476;28;20655;-86
2021/06/27 01:17:55;;;;;;;3.33;3.05;;;;;;;;;;5071885;28;20234;-86
2021/06/27 01:20:26;;;;;;;6.18;3.47;;;;;;;;;;5072340;28;20187;-86
2021/06/27 01:22:57;;;;;;;2.38;2.20;;;;;;;;;;5072361;28;20725;-87
2021/06/27 01:25:27;;;;;;;1.92;1.83;;;;;;;;;;5072644;28;20196;-86
2021/06/27 01:27:55;;;;;;;2.28;2.08;;;;;;;;;;5072043;28;20247;-86
2021/06/27 01:30:25;;;;;;;2.20;2.10;;;;;;;;;;5072226;28;20181;-85
2021/06/27 01:32:54;;;;;;;3.03;2.83;;;;;;;;;;5072456;28;20196;-85
2021/06/27 01:35:24;;;;;;;1.95;1.85;;;;;;;;;;5072677;28;20196;-86
2021/06/27 01:37:56;;;;;;;3.28;2.97;;;;;;;;;;5072115;28;20224;-86
2021/06/27 01:40:25;;;;;;;2.55;2.42;;;;;;;;;;5059753;28;20201;-86
2021/06/27 01:43:04;;;;;;;2.38;2.28;;;;;;;;;;5071850;28;20206;-86
2021/06/27 01:45:32;;;;;;;2.58;2.38;;;;;;;;;;5072206;28;20215;-86
2021/06/27 01:48:02;;;;;;;2.53;2.33;;;;;;;;;;5071842;28;20221;-86
2021/06/27 01:50:31;;;;;;;2.38;2.20;;;;;;;;;;5071745;28;20189;-86
2021/06/27 01:53:02;;;;;;;3.15;2.80;;;;;;;;;;5071998;28;20177;-87
2021/06/27 01:55:30;;;;;;;2.55;2.35;;;;;;;;;;5047603;28;20202;-86
2021/06/27 01:57:59;;;;;;;2.47;2.30;;;;;;;;;;5031287;28;20242;-86
2021/06/27 02:00:50;;;;;;;3.22;2.92;;;;;;;;;;5038839;28;20224;-87
2021/06/27 02:03:50;;;;;;;3.78;3.47;;;;;;;;;;5038883;28;20554;-88
2021/06/27 02:06:18;;;;;;;3.55;3.25;;;;;;;;;;5041835;28;20241;-86
2021/06/27 02:08:47;;;;;;;3.22;2.70;;;;;;;;;;5050280;28;20190;-86
2021/06/27 02:11:19;;;;;;;2.40;2.20;;;;;;;;;;5051055;28;20202;-86
2021/06/27 02:13:46;;;;;;;2.83;2.50;;;;;;;;;;5045656;28;20198;-86
2021/06/27 02:16:17;;;;;;;2.30;2.20;;;;;;;;;;5044717;28;20289;-86
2021/06/27 02:18:48;;;;;;;3.20;2.10;;;;;;;;;;5053963;28;20190;-85
2021/06/27 02:21:18;;;;;;;2.60;2.40;;;;;;;;;;5037494;28;20197;-86
2021/06/27 02:23:47;;;;;;;3.17;2.92;;;;;;;;;;5046164;28;20676;-86
2021/06/27 02:26:15;;;;;;;6.57;2.58;;;;;;;;;;5044447;28;20198;-85
2021/06/27 02:28:43;;;;;;;2.85;2.65;;;;;;;;;;5052025;28;20213;-86
2021/06/27 02:31:10;;;;;;;2.20;2.00;;;;;;;;;;5045042;28;20208;-85
2021/06/27 02:33:38;;;;;;;5.78;5.28;;;;;;;;;;5046146;28;20202;-85
2021/06/27 02:36:07;;;;;;;6.20;5.70;;;;;;;;;;5045361;28;20197;-85
2021/06/27 02:38:36;;;;;;;3.55;3.25;;;;;;;;;;5048576;28;20703;-86
2021/06/27 02:41:07;;;;;;;3.08;2.88;;;;;;;;;;5048925;28;20204;-85
2021/06/27 02:43:35;;;;;;;2.78;2.58;;;;;;;;;;5052058;28;20698;-85
2021/06/27 02:46:03;;;;;;;2.80;2.60;;;;;;;;;;5049065;28;20201;-85
2021/06/27 02:48:32;;;;;;;2.20;2.10;;;;;;;;;;5035635;28;20700;-86
2021/06/27 02:51:00;;;;;;;2.90;2.63;;;;;;;;;;5038802;28;20190;-86
2021/06/27 02:53:27;;;;;;;3.10;2.80;;;;;;;;;;5044109;28;20199;-86
2021/06/27 02:56:08;;;;;;;3.13;2.85;;;;;;;;;;5033121;28;20293;-86
2021/06/27 02:58:38;;;;;;;2.40;2.30;;;;;;;;;;5049339;28;20244;-85
2021/06/27 03:01:07;;;;;;;2.53;2.33;;;;;;;;;;5039244;28;20204;-86
2021/06/27 03:03:35;;;;;;;3.10;2.90;;;;;;;;;;5039896;28;20235;-86
2021/06/27 03:06:04;;;;;;;3.30;3.00;;;;;;;;;;5045572;28;20205;-86
2021/06/27 03:08:32;;;;;;;4.35;3.95;;;;;;;;;;5034178;28;20229;-86
2021/06/27 03:11:00;;;;;;;4.68;4.07;;;;;;;;;;5050647;28;20212;-85
2021/06/27 03:13:28;;;;;;;3.85;3.55;;;;;;;;;;5049525;28;20624;-85
2021/06/27 03:15:57;;;;;;;3.33;3.13;;;;;;;;;;5050696;28;20186;-86
2021/06/27 03:18:25;;;;;;;2.70;2.50;;;;;;;;;;5049834;28;20221;-87
2021/06/27 03:20:53;;;;;;;3.47;3.17;;;;;;;;;;5050339;28;20188;-85
2021/06/27 03:23:20;;;;;;;2.95;2.75;;;;;;;;;;5049922;28;20229;-85
2021/06/27 03:25:48;;;;;;;2.47;2.33;;;;;;;;;;5049969;28;20212;-86
2021/06/27 03:28:15;;;;;;;2.60;2.50;;;;;;;;;;5050562;28;20225;-86
2021/06/27 03:30:43;;;;;;;2.78;2.55;;;;;;;;;;5049937;28;20212;-86
2021/06/27 03:33:12;;;;;;;2.70;2.50;;;;;;;;;;5050290;28;20196;-86
2021/06/27 03:35:40;;;;;;;3.70;3.40;;;;;;;;;;5050397;28;20269;-86
2021/06/27 03:38:12;;;;;;;2.75;2.55;;;;;;;;;;5050333;28;20222;-86
2021/06/27 03:40:42;;;;;;;3.30;3.00;;;;;;;;;;5050182;28;20988;-86
2021/06/27 03:43:09;;;;;;;3.22;2.92;;;;;;;;;;5050364;28;20210;-85
2021/06/27 03:45:37;;;;;;;3.55;3.25;;;;;;;;;;5050553;28;20201;-85
2021/06/27 03:48:06;;;;;;;4.78;4.38;;;;;;;;;;5050695;28;20233;-84
2021/06/27 03:50:36;;;;;;;3.50;3.05;;;;;;;;;;5050360;28;20697;-86
2021/06/27 03:53:04;;;;;;;4.32;3.85;;;;;;;;;;5050395;28;20265;-85
2021/06/27 03:55:31;;;;;;;4.55;4.15;;;;;;;;;;5050248;28;20272;-87
2021/06/27 03:57:59;;;;;;;4.88;3.85;;;;;;;;;;5042253;28;20237;-86
2021/06/27 04:00:27;;;;;;;4.65;4.18;;;;;;;;;;5043034;28;20663;-85
2021/06/27 04:06:28;;;;;;;5.82;5.30;;;;;;;;;;5026171;28;20205;-86
2021/06/27 04:08:55;;;;;;;6.75;5.78;;;;;;;;;;5018840;28;20202;-86
2021/06/27 04:11:23;;;;;;;9.77;7.00;;;;;;;;;;5029049;28;20175;-86
2021/06/27 04:13:50;;;;;;;6.72;6.07;;;;;;;;;;5028771;28;20202;-86
2021/06/27 04:16:20;;;;;;;8.45;6.82;;;;;;;;;;5028730;28;20550;-86
2021/06/27 04:18:48;;;;;;;9.70;5.53;;;;;;;;;;5029063;28;20571;-86
2021/06/27 04:21:15;;;;;;;5.50;4.85;;;;;;;;;;5029723;28;20709;-86
2021/06/27 04:23:44;;;;;;;5.35;4.85;;;;;;;;;;5029639;28;20218;-86
2021/06/27 04:26:11;;;;;;;5.35;4.65;;;;;;;;;;5029509;28;20194;-86
2021/06/27 04:28:39;;;;;;;5.47;4.97;;;;;;;;;;5030050;28;20221;-86
2021/06/27 04:31:06;;;;;;;4.47;4.05;;;;;;;;;;5030589;28;20190;-85
2021/06/27 04:33:34;;;;;;;6.10;4.53;;;;;;;;;;5029720;28;20415;-85
2021/06/27 04:36:01;;;;;;;6.35;5.15;;;;;;;;;;5030516;28;20249;-85
2021/06/27 04:38:29;;;;;;;8.00;6.65;;;;;;;;;;5032065;28;20226;-86
2021/06/27 04:40:57;;;;;;;5.95;4.50;;;;;;;;;;5033801;28;20222;-86
2021/06/27 04:43:25;;;;;;;5.45;4.72;;;;;;;;;;5032908;28;20334;-86
2021/06/27 04:45:52;;;;;;;4.60;4.07;;;;;;;;;;5033939;28;20211;-86
2021/06/27 04:48:20;;;;;;;4.57;4.18;;;;;;;;;;5033035;28;20222;-86
2021/06/27 04:50:48;;;;;;;3.95;3.58;;;;;;;;;;5032785;28;20596;-86
2021/06/27 04:53:16;;;;;;;3.90;3.47;;;;;;;;;;5034040;28;20190;-86
2021/06/27 04:55:44;;;;;;;3.78;3.47;;;;;;;;;;5033786;28;20206;-86
2021/06/27 04:58:14;;;;;;;4.03;3.60;;;;;;;;;;5032968;28;20234;-86
2021/06/27 05:00:44;;;;;;;2.92;2.63;;;;;;;;;;5033916;28;20202;-86
2021/06/27 05:03:12;;;;;;;3.05;2.85;;;;;;;;;;5034203;28;20229;-86
2021/06/27 05:05:39;;;;;;;2.78;2.58;;;;;;;;;;5034553;28;20194;-86
2021/06/27 05:08:07;;;;;;;2.40;2.30;;;;;;;;;;5034356;28;20758;-85
2021/06/27 05:10:35;;;;;;;3.05;2.83;;;;;;;;;;5033604;28;20615;-85
2021/06/27 05:13:02;;;;;;;2.95;2.75;;;;;;;;;;5033586;28;20205;-86
2021/06/27 05:15:31;;;;;;;2.92;2.72;;;;;;;;;;5033302;28;20217;-86
2021/06/27 05:17:58;;;;;;;2.45;2.35;;;;;;;;;;5034406;28;20218;-86
2021/06/27 05:20:26;;;;;;;2.63;2.47;;;;;;;;;;5034623;28;20187;-86
2021/06/27 05:22:53;;;;;;;2.85;2.65;;;;;;;;;;5034391;28;20202;-84
2021/06/27 05:25:21;;;;;;;2.15;2.05;;;;;;;;;;5034973;28;20179;-86
2021/06/27 05:27:48;;;;;;;2.67;2.47;;;;;;;;;;5035125;28;20225;-86
2021/06/27 05:30:17;;;;;;;3.10;2.90;;;;;;;;;;5034592;28;20198;-86
2021/06/27 05:32:46;;;;;;;2.40;2.30;;;;;;;;;;5035078;28;20190;-85
2021/06/27 05:35:13;;;;;;;2.78;2.58;;;;;;;;;;5035044;28;20492;-86
2021/06/27 05:37:41;;;;;;;2.58;2.38;;;;;;;;;;5036321;28;20226;-86
2021/06/27 05:40:10;;;;;;;2.25;2.15;;;;;;;;;;5037563;28;20207;-85
2021/06/27 05:42:37;;;;;;;1.90;1.80;;;;;;;;;;5037787;28;20755;-85
2021/06/27 05:45:07;;;;;;;1.75;1.65;;;;;;;;;;5037807;28;20222;-85
2021/06/27 05:47:34;;;;;;;1.67;1.58;;;;;;;;;;5032459;28;20222;-85
2021/06/27 05:50:03;;;;;;;2.20;2.10;;;;;;;;;;5031437;28;20679;-85
2021/06/27 05:52:31;;;;;;;1.90;1.80;;;;;;;;;;5032181;28;20202;-86
2021/06/27 05:54:58;;;;;;;2.10;2.00;;;;;;;;;;5032336;28;20656;-85
2021/06/27 05:57:26;;;;;;;2.30;2.20;;;;;;;;;;5032165;28;20234;-85
2021/06/27 05:59:53;;;;;;;2.38;2.28;;;;;;;;;;5042580;28;20202;-86
2021/06/27 06:02:20;;;;;;;1.75;1.65;;;;;;;;;;5046796;28;20640;-87
2021/06/27 06:04:48;;;;;;;1.50;1.40;;;;;;;;;;5046983;28;20290;-85
2021/06/27 06:07:17;;;;;;;1.63;1.52;;;;;;;;;;5046869;28;20226;-87
2021/06/27 06:09:44;;;;;;;1.48;1.40;;;;;;;;;;5047673;28;20217;-88
2021/06/27 06:12:12;;;;;;;1.80;1.70;;;;;;;;;;5047928;28;20300;-85
2021/06/27 06:14:39;;;;;;;2.28;2.08;;;;;;;;;;5047082;28;20257;-86
2021/06/27 06:17:07;;;;;;;2.03;1.92;;;;;;;;;;5047347;28;20234;-89
2021/06/27 06:19:35;;;;;;;2.13;2.03;;;;;;;;;;5047392;28;20214;-88
2021/06/27 06:22:02;;;;;;;2.13;2.03;;;;;;;;;;5047514;28;20190;-86
2021/06/27 06:24:31;;;;;;;1.40;1.35;;;;;;;;;;5047052;28;20225;-86
2021/06/27 06:26:58;;;;;;;1.73;1.63;;;;;;;;;;5047757;28;20250;-87
2021/06/27 06:29:26;;;;;;;1.80;1.70;;;;;;;;;;5048479;28;20187;-86
2021/06/27 06:31:53;;;;;;;1.60;1.50;;;;;;;;;;5048096;28;20209;-87
2021/06/27 06:34:22;;;;;;;1.80;1.70;;;;;;;;;;5047574;28;20230;-86
2021/06/27 06:36:49;;;;;;;2.38;2.20;;;;;;;;;;5045644;28;20260;-86
2021/06/27 06:39:17;;;;;;;2.15;2.05;;;;;;;;;;5047406;28;20274;-87
2021/06/27 06:41:46;;;;;;;2.83;2.63;;;;;;;;;;5048136;28;20183;-86
2021/06/27 06:44:13;;;;;;;2.55;2.35;;;;;;;;;;5047214;28;20214;-88
2021/06/27 06:46:41;;;;;;;3.38;2.22;;;;;;;;;;5046651;28;20226;-86
2021/06/27 06:49:08;;;;;;;2.75;2.55;;;;;;;;;;5047405;28;20198;-86
2021/06/27 06:51:36;;;;;;;2.17;2.08;;;;;;;;;;5046932;28;20206;-86
2021/06/27 06:54:03;;;;;;;2.13;2.03;;;;;;;;;;5047210;28;20268;-86
2021/06/27 06:56:31;;;;;;;2.33;2.17;;;;;;;;;;5046847;28;20266;-86
2021/06/27 06:59:00;;;;;;;1.95;1.85;;;;;;;;;;5047049;28;20254;-87
2021/06/27 07:01:27;;;;;;;1.80;1.70;;;;;;;;;;5046379;28;20233;-86
2021/06/27 07:03:54;;;;;;;2.33;2.13;;;;;;;;;;5047565;28;20222;-87
2021/06/27 07:06:22;;;;;;;2.35;2.15;;;;;;;;;;5047319;28;20198;-86
2021/06/27 07:08:49;;;;;;;2.40;2.28;;;;;;;;;;5046483;28;20193;-87
2021/06/27 07:11:17;;;;;;;2.10;2.00;;;;;;;;;;5045955;28;20204;-87
2021/06/27 07:13:44;;;;;;;1.80;1.67;;;;;;;;;;5045492;28;20198;-86
2021/06/27 07:16:13;;;;;;;2.65;2.45;;;;;;;;;;5046110;28;20199;-87
2021/06/27 07:18:41;;;;;;;2.30;2.20;;;;;;;;;;5046528;28;20237;-86
2021/06/27 07:21:08;;;;;;;1.65;1.55;;;;;;;;;;5047447;28;20221;-90
2021/06/27 07:23:36;;;;;;;1.50;1.40;;;;;;;;;;5049625;28;20237;-89
2021/06/27 07:26:03;;;;;;;1.73;1.63;;;;;;;;;;5047460;28;20683;-87
2021/06/27 07:28:31;;;;;;;1.70;1.60;;;;;;;;;;5041723;28;20286;-87
2021/06/27 07:30:59;;;;;;;1.65;1.55;;;;;;;;;;5042382;28;20202;-88
2021/06/27 07:33:28;;;;;;;1.58;1.48;;;;;;;;;;5043961;28;20205;-87
2021/06/27 07:35:56;;;;;;;1.70;1.60;;;;;;;;;;5042151;28;20251;-86
2021/06/27 07:38:23;;;;;;;1.50;1.45;;;;;;;;;;5035127;28;20224;-86
2021/06/27 07:40:51;;;;;;;2.20;2.10;;;;;;;;;;5046663;28;20209;-88
2021/06/27 07:43:18;;;;;;;1.85;1.75;;;;;;;;;;5048591;28;20284;-86
2021/06/27 07:45:45;;;;;;;1.95;1.85;;;;;;;;;;5045228;28;20260;-87
2021/06/27 07:48:14;;;;;;;2.45;2.25;;;;;;;;;;5045812;28;20222;-88
2021/06/27 07:50:43;;;;;;;2.05;1.95;;;;;;;;;;5046245;28;20290;-89
2021/06/27 07:53:11;;;;;;;1.67;1.58;;;;;;;;;;5051115;28;20183;-89
2021/06/27 07:55:38;;;;;;;1.90;1.80;;;;;;;;;;5041077;28;20198;-85
2021/06/27 07:58:06;;;;;;;1.98;1.88;;;;;;;;;;5036281;28;20230;-86
2021/06/27 08:00:33;;;;;;;2.10;2.00;;;;;;;;;;5034048;28;20619;-86
2021/06/27 08:03:02;;;;;;;2.53;2.33;;;;;;;;;;5035576;28;20571;-87
2021/06/27 08:05:30;;;;;;;2.22;2.13;;;;;;;;;;5035215;28;20253;-87
2021/06/27 08:07:58;;;;;;;2.38;2.28;;;;;;;;;;5033448;28;20222;-86
2021/06/27 08:10:26;;;;;;;2.08;1.95;;;;;;;;;;5034710;28;20203;-86
2021/06/27 08:12:54;;;;;;;1.90;1.80;;;;;;;;;;5035737;28;20224;-87
2021/06/27 08:15:22;;;;;;;1.77;1.67;;;;;;;;;;5036669;28;20188;-86
2021/06/27 08:17:51;;;;;;;2.03;1.92;;;;;;;;;;5037233;28;20226;-87
2021/06/27 08:20:21;;;;;;;1.80;1.70;;;;;;;;;;5038501;28;20782;-87
2021/06/27 08:22:49;;;;;;;1.65;1.58;;;;;;;;;;5041874;28;20191;-86
2021/06/27 08:25:18;;;;;;;1.83;1.73;;;;;;;;;;5041270;28;20222;-87
2021/06/27 08:27:47;;;;;;;1.70;1.60;;;;;;;;;;5037797;28;20226;-88
2021/06/27 08:30:16;;;;;;;1.60;1.50;;;;;;;;;;5039031;28;20202;-86
2021/06/27 08:32:45;;;;;;;2.10;2.00;;;;;;;;;;5037699;28;20209;-88
2021/06/27 08:35:14;;;;;;;2.25;2.15;;;;;;;;;;5042242;28;20205;-85
2021/06/27 08:37:42;;;;;;;1.73;1.63;;;;;;;;;;5038019;28;20226;-86
2021/06/27 08:40:12;;;;;;;2.05;1.95;;;;;;;;;;5037375;28;20208;-85
2021/06/27 08:42:41;;;;;;;1.92;1.83;;;;;;;;;;5036325;28;20200;-88
2021/06/27 08:45:12;;;;;;;2.20;2.10;;;;;;;;;;5039987;28;20211;-89
2021/06/27 08:47:40;;;;;;;1.92;1.83;;;;;;;;;;5037524;28;20222;-86
2021/06/27 08:50:11;;;;;;;1.90;1.80;;;;;;;;;;5036797;28;20583;-88
2021/06/27 08:52:39;;;;;;;2.08;1.98;;;;;;;;;;5036371;28;20202;-86
2021/06/27 08:55:08;;;;;;;2.10;2.00;;;;;;;;;;5036217;28;20668;-86
2021/06/27 08:57:36;;;;;;;2.75;2.55;;;;;;;;;;5037916;28;20232;-87
2021/06/27 09:00:08;;;;;;;2.08;1.98;;;;;;;;;;5036727;28;20190;-87
2021/06/27 09:02:36;;;;;;;1.70;1.60;;;;;;;;;;5051016;28;20202;-86
2021/06/27 09:05:04;;;;;;;1.90;1.80;;;;;;;;;;5054251;28;20193;-86
2021/06/27 09:07:33;;;;;;;1.90;1.80;;;;;;;;;;5056209;28;20221;-87
2021/06/27 09:10:06;;;;;;;1.70;1.60;;;;;;;;;;5056632;28;20207;-87
2021/06/27 09:12:50;;;;;;;1.52;1.45;;;;;;;;;;5056075;28;20192;-87
2021/06/27 09:15:45;;;;;;;2.00;1.90;;;;;;;;;;5055671;28;20182;-87
2021/06/27 09:18:27;;;;;;;1.95;1.85;;;;;;;;;;5057880;28;20316;-87
2021/06/27 09:20:57;;;;;;;1.65;1.55;;;;;;;;;;5055783;28;20256;-87
2021/06/27 09:23:38;;;;;;;1.52;1.48;;;;;;;;;;5055843;28;20217;-86
2021/06/27 09:26:07;;;;;;;1.90;1.80;;;;;;;;;;5054726;28;20206;-86
2021/06/27 09:28:44;;;;;;;1.55;1.45;;;;;;;;;;5057849;28;20217;-86
2021/06/27 09:31:34;;;;;;;1.02;1.02;;;;;;;;;;5076364;28;20181;-86
2021/06/27 09:34:03;;;;;;;1.88;1.77;;;;;;;;;;5076790;28;20195;-88
2021/06/27 09:36:31;;;;;;;1.45;1.35;;;;;;;;;;5076843;28;20211;-87
2021/06/27 09:38:58;;;;;;;2.10;2.00;;;;;;;;;;5076189;28;20546;-86
2021/06/27 09:41:31;;;;;;;1.70;1.60;;;;;;;;;;5077821;28;20189;-88
2021/06/27 09:44:01;;;;;;;2.03;1.92;;;;;;;;;;5078527;28;20593;-87
2021/06/27 09:46:37;;;;;;;3.03;1.98;;;;;;;;;;5074326;28;20222;-87
2021/06/27 09:49:07;;;;;;;2.20;2.10;;;;;;;;;;5073728;28;20181;-84
2021/06/27 09:51:37;;;;;;;2.10;2.00;;;;;;;;;;5073504;28;20185;-84
2021/06/27 09:54:13;;;;;;;1.58;1.48;;;;;;;;;;5072952;28;20189;-85
2021/06/27 09:56:41;;;;;;;1.73;1.63;;;;;;;;;;5072888;28;20232;-84
2021/06/27 09:59:10;;;;;;;2.45;2.17;;;;;;;;;;5047738;28;20206;-84
2021/06/27 10:01:41;;;;;;;2.35;2.25;;;;;;;;;;5050769;28;20197;-85
2021/06/27 10:04:13;;;;;;;1.98;1.88;;;;;;;;;;5037974;28;20204;-85
2021/06/27 10:06:52;;;;;;;1.95;1.85;;;;;;;;;;5038802;28;20301;-84
2021/06/27 10:09:22;;;;;;;1.33;1.33;;;;;;;;;;5046145;28;20622;-85
2021/06/27 10:12:01;;;;;;;2.00;1.90;;;;;;;;;;5047928;28;20191;-84
2021/06/27 10:14:32;;;;;;;1.80;1.70;;;;;;;;;;5052526;28;20186;-85
2021/06/27 10:17:04;;;;;;;1.73;1.63;;;;;;;;;;5052002;28;20762;-85
2021/06/27 10:19:31;;;;;;;2.08;1.98;;;;;;;;;;5053148;28;20197;-85
2021/06/27 10:22:01;;;;;;;1.90;1.80;;;;;;;;;;5050380;28;20198;-84
2021/06/27 10:24:30;;;;;;;2.05;1.95;;;;;;;;;;5052240;28;20208;-85
2021/06/27 10:26:58;;;;;;;1.50;1.50;;;;;;;;;;5051762;28;20303;-85
2021/06/27 10:29:50;;;;;;;1.63;1.52;;;;;;;;;;5051763;28;20219;-84
2021/06/27 10:32:19;;;;;;;1.70;1.60;;;;;;;;;;5051335;28;20723;-85
2021/06/27 10:34:46;;;;;;;2.03;1.92;;;;;;;;;;5051926;28;20186;-85
2021/06/27 10:37:18;;;;;;;1.70;1.60;;;;;;;;;;5050796;28;20588;-85
2021/06/27 10:39:57;;;;;;;1.83;1.73;;;;;;;;;;5051586;28;20197;-88
2021/06/27 10:43:01;;;;;;;1.88;1.77;;;;;;;;;;5049074;28;20202;-86
2021/06/27 10:45:31;;;;;;;1.40;1.40;;;;;;;;;;5050627;28;20206;-85
2021/06/27 10:48:02;;;;;;;1.70;1.60;;;;;;;;;;5051565;28;20232;-85
2021/06/27 10:50:52;;;;;;;1.50;1.40;;;;;;;;;;5051334;28;20220;-88
2021/06/27 10:53:19;;;;;;;1.90;1.80;;;;;;;;;;5051402;28;20205;-86
2021/06/27 10:55:47;;;;;;;1.60;1.50;;;;;;;;;;5051201;28;20260;-85
2021/06/27 10:58:17;;;;;;;1.65;1.55;;;;;;;;;;5051016;28;20233;-85
2021/06/27 11:01:09;;;;;;;2.33;2.22;;;;;;;;;;5051531;28;20186;-86
2021/06/27 11:03:43;;;;;;;1.75;1.70;;;;;;;;;;5050674;28;20190;-85
2021/06/27 11:06:39;;;;;;;2.03;1.92;;;;;;;;;;5050328;28;20186;-85
2021/06/27 11:09:28;;;;;;;2.00;1.90;;;;;;;;;;5050412;28;20185;-84
2021/06/27 11:11:58;;;;;;;2.35;2.25;;;;;;;;;;5050409;28;20205;-85
2021/06/27 11:14:27;;;;;;;2.00;1.90;;;;;;;;;;5050403;28;20197;-85
2021/06/27 11:17:06;;;;;;;2.13;2.03;;;;;;;;;;5050491;28;20222;-84
2021/06/27 11:19:37;;;;;;;1.50;1.40;;;;;;;;;;5049803;28;20178;-84
2021/06/27 11:22:19;;;;;;;1.80;1.70;;;;;;;;;;5049931;28;20552;-85
2021/06/27 11:24:48;;;;;;;1.80;1.70;;;;;;;;;;5050349;28;20535;-85
2021/06/27 11:27:32;;;;;;;2.55;2.35;;;;;;;;;;5050183;28;20225;-85
2021/06/27 11:30:01;;;;;;;1.88;1.77;;;;;;;;;;5044765;28;20206;-85
2021/06/27 11:32:50;;;;;;;1.90;1.80;;;;;;;;;;5050004;28;20636;-85
2021/06/27 11:35:47;;;;;;;1.90;1.80;;;;;;;;;;5050612;28;20199;-85
2021/06/27 11:38:44;;;;;;;1.50;1.40;;;;;;;;;;5049740;28;20224;-85
2021/06/27 11:41:34;;;;;;;1.80;1.70;;;;;;;;;;5049797;28;20240;-85
2021/06/27 11:44:03;;;;;;;1.60;1.50;;;;;;;;;;5047766;28;20208;-85
2021/06/27 11:46:34;;;;;;;2.13;2.03;;;;;;;;;;5050619;28;20185;-85
2021/06/27 11:49:05;;;;;;;1.60;1.50;;;;;;;;;;5050963;28;20211;-85
2021/06/27 11:51:40;;;;;;;1.80;1.70;;;;;;;;;;5054651;28;20201;-85
2021/06/27 11:54:09;;;;;;;1.70;1.60;;;;;;;;;;5054005;28;20185;-85
2021/06/27 11:57:00;;;;;;;1.50;1.40;;;;;;;;;;5053774;28;20262;-85
2021/06/27 11:59:30;;;;;;;2.00;1.90;;;;;;;;;;5048030;28;20264;-85
2021/06/27 12:02:16;;;;;;;3.20;2.90;;;;;;;;;;5054145;28;20242;-85
2021/06/27 12:04:49;;;;;;;1.40;1.40;;;;;;;;;;5054155;28;20193;-86
2021/06/27 12:07:33;;;;;;;2.03;1.92;;;;;;;;;;5053657;28;20225;-86
2021/06/27 12:10:04;;;;;;;1.83;1.73;;;;;;;;;;5054167;28;20196;-84
2021/06/27 12:12:40;;;;;;;1.55;1.45;;;;;;;;;;5054393;28;20640;-84
2021/06/27 12:15:25;;;;;;;1.60;1.50;;;;;;;;;;5053550;28;20189;-85
2021/06/27 12:17:58;;;;;;;1.75;1.65;;;;;;;;;;5053728;28;20270;-85
2021/06/27 12:20:28;;;;;;;1.90;1.73;;;;;;;;;;5053964;28;20202;-85
2021/06/27 12:23:00;;;;;;;1.70;1.60;;;;;;;;;;5054099;28;20186;-85
2021/06/27 12:25:29;;;;;;;1.10;1.10;;;;;;;;;;5054763;28;20186;-84
2021/06/27 12:28:00;;;;;;;1.33;1.33;;;;;;;;;;5053754;28;20233;-85
2021/06/27 12:30:49;;;;;;;1.60;1.50;;;;;;;;;;5054363;28;20198;-85
2021/06/27 12:33:20;;;;;;;1.58;1.48;;;;;;;;;;5053646;28;20201;-84
2021/06/27 12:35:50;;;;;;;1.98;1.88;;;;;;;;;;5052923;28;20198;-86
2021/06/27 12:38:19;;;;;;;1.40;1.30;;;;;;;;;;5053375;28;20219;-86
2021/06/27 12:40:51;;;;;;;1.42;1.42;;;;;;;;;;5054329;28;20560;-85
2021/06/27 12:43:25;;;;;;;1.30;1.30;;;;;;;;;;5053838;28;20197;-85
2021/06/27 12:46:25;;;;;;;1.60;1.50;;;;;;;;;;5053522;28;20184;-85
2021/06/27 12:49:19;;;;;;;1.63;1.52;;;;;;;;;;5053229;28;20206;-85
2021/06/27 12:51:51;;;;;;;1.95;1.85;;;;;;;;;;5053306;28;20301;-84
2021/06/27 12:54:26;;;;;;;1.88;1.77;;;;;;;;;;5052994;28;20196;-85
2021/06/27 12:57:03;;;;;;;1.98;1.88;;;;;;;;;;5052925;28;20229;-85
2021/06/27 12:59:47;;;;;;;1.27;1.27;;;;;;;;;;5052571;28;20186;-85
2021/06/27 13:02:18;;;;;;;1.30;1.30;;;;;;;;;;5053259;28;20201;-85
2021/06/27 13:04:58;;;;;;;1.88;1.77;;;;;;;;;;5053512;28;20657;-85
2021/06/27 13:07:29;;;;;;;1.27;1.27;;;;;;;;;;5054302;28;20236;-85
2021/06/27 13:10:06;;;;;;;1.40;1.40;;;;;;;;;;5053055;28;20185;-86
2021/06/27 13:12:36;;;;;;;1.38;1.35;;;;;;;;;;5052640;28;20185;-86
2021/06/27 13:15:13;;;;;;;1.42;1.38;;;;;;;;;;5052891;28;20190;-86
2021/06/27 13:17:45;;;;;;;1.40;1.30;;;;;;;;;;5053801;28;20213;-85
2021/06/27 13:20:15;;;;;;;2.10;2.00;;;;;;;;;;5053041;28;20659;-85
2021/06/27 13:23:13;;;;;;;1.67;1.58;;;;;;;;;;5052266;28;20201;-85
2021/06/27 13:25:58;;;;;;;1.60;1.50;;;;;;;;;;5053103;28;20222;-86
2021/06/27 13:28:39;;;;;;;1.40;1.30;;;;;;;;;;5042147;28;20284;-86
2021/06/27 13:31:09;;;;;;;1.38;1.38;;;;;;;;;;5050554;28;20555;-86
2021/06/27 13:33:46;;;;;;;1.42;1.33;;;;;;;;;;5050918;28;20194;-86
2021/06/27 13:36:16;;;;;;;1.35;1.33;;;;;;;;;;5050471;28;20186;-86
2021/06/27 13:38:47;;;;;;;1.73;1.63;;;;;;;;;;5050473;28;20224;-85
2021/06/27 13:41:20;;;;;;;1.90;1.80;;;;;;;;;;5050671;28;20717;-85
2021/06/27 13:43:48;;;;;;;1.55;1.45;;;;;;;;;;5051854;28;20186;-85
2021/06/27 13:46:16;;;;;;;1.55;1.55;;;;;;;;;;5051557;28;20210;-86
2021/06/27 13:48:43;;;;;;;1.55;1.48;;;;;;;;;;5051902;28;20249;-85
2021/06/27 13:51:11;;;;;;;1.48;1.42;;;;;;;;;;5051687;28;20583;-85
2021/06/27 13:53:39;;;;;;;1.20;1.20;;;;;;;;;;5051725;28;20205;-85
2021/06/27 13:56:17;;;;;;;1.42;1.33;;;;;;;;;;5051435;28;20216;-86
2021/06/27 13:58:47;;;;;;;1.65;1.55;;;;;;;;;;5051132;28;20237;-85
2021/06/27 14:01:18;;;;;;;1.58;1.48;;;;;;;;;;5051592;28;20252;-85
2021/06/27 14:03:46;;;;;;;1.67;1.58;;;;;;;;;;5051597;28;20211;-85
2021/06/27 14:06:14;;;;;;;1.85;1.75;;;;;;;;;;5051849;28;20192;-85
2021/06/27 14:08:42;;;;;;;1.20;1.20;;;;;;;;;;5051810;28;20253;-85
2021/06/27 14:11:09;;;;;;;1.73;1.63;;;;;;;;;;5051349;28;20186;-85
2021/06/27 14:13:38;;;;;;;1.10;1.10;;;;;;;;;;5051559;28;20202;-86
2021/06/27 14:16:08;;;;;;;1.25;1.25;;;;;;;;;;5051702;28;20588;-85
2021/06/27 14:18:37;;;;;;;1.70;1.60;;;;;;;;;;5051138;28;20222;-85
2021/06/27 14:21:06;;;;;;;1.40;1.40;;;;;;;;;;5051160;28;20232;-85
2021/06/27 14:23:34;;;;;;;1.20;1.20;;;;;;;;;;5051293;28;20676;-85
2021/06/27 14:26:01;;;;;;;1.10;1.10;;;;;;;;;;5051473;28;20212;-85
2021/06/27 14:28:30;;;;;;;1.55;1.45;;;;;;;;;;5050905;28;20226;-84
2021/06/27 14:30:58;;;;;;;2.03;1.92;;;;;;;;;;5050968;28;20208;-86
2021/06/27 14:33:27;;;;;;;1.98;1.88;;;;;;;;;;5050857;28;20185;-86
2021/06/27 14:35:56;;;;;;;1.63;1.52;;;;;;;;;;5050776;28;20716;-85
2021/06/27 14:38:24;;;;;;;1.70;1.60;;;;;;;;;;5050785;28;20226;-85
2021/06/27 14:40:52;;;;;;;1.40;1.40;;;;;;;;;;5050602;28;20205;-86
2021/06/27 14:43:19;;;;;;;1.40;1.40;;;;;;;;;;5050685;28;20178;-86
2021/06/27 14:45:47;;;;;;;2.00;1.90;;;;;;;;;;5050710;28;20198;-85
2021/06/27 14:48:14;;;;;;;1.90;1.80;;;;;;;;;;5050208;28;20213;-86
2021/06/27 14:50:43;;;;;;;1.65;1.55;;;;;;;;;;5050478;28;20226;-85
2021/06/27 14:53:10;;;;;;;1.40;1.40;;;;;;;;;;5050782;28;20187;-85
2021/06/27 14:55:38;;;;;;;1.40;1.30;;;;;;;;;;5050807;28;20190;-86
2021/06/27 14:58:08;;;;;;;1.38;1.30;;;;;;;;;;5050049;28;20241;-85
2021/06/27 15:00:37;;;;;;;1.13;1.13;;;;;;;;;;5050406;28;20201;-85
2021/06/27 15:03:05;;;;;;;1.98;1.88;;;;;;;;;;5050663;28;20206;-85
2021/06/27 15:05:33;;;;;;;1.85;1.75;;;;;;;;;;5049763;28;20206;-85
2021/06/27 15:08:02;;;;;;;1.45;1.45;;;;;;;;;;5050449;28;20587;-85